Time;durP1;ratioP1;P1;durP2;ratioP2;P2;SDS_P1;SDS_P2;PMS_P1;PMS_P2;Temp;Humidity;BMP_temperature;BMP_pressure;BME280_temperature;BME280_humidity;BME280_pressure;Samples;Min_cycle;Max_cycle;Signal;HPM_P1;HPM_P2
2023/01/25 00:01:10;;;;;;;15.40;7.17;;;;;;;;;;6236891;22;20172;-92
2023/01/25 00:04:17;;;;;;;18.67;7.93;;;;;;;;;;6218823;23;20171;-90
2023/01/25 00:07:22;;;;;;;18.97;7.53;;;;;;;;;;6221914;23;20251;-90
2023/01/25 00:10:30;;;;;;;18.73;7.87;;;;;;;;;;6222390;22;20148;-92
2023/01/25 06:52:20;;;;;;;23.20;9.47;;;;;;;;;;6149019;23;20333;-90
2023/01/25 06:55:25;;;;;;;25.13;9.53;;;;;;;;;;6202699;23;20232;-92
2023/01/25 06:58:31;;;;;;;23.47;9.47;;;;;;;;;;6201182;23;20211;-89
2023/01/25 07:01:36;;;;;;;26.47;10.63;;;;;;;;;;6185243;23;20493;-92
2023/01/25 07:04:43;;;;;;;25.40;9.40;;;;;;;;;;6203524;23;20172;-91
2023/01/25 07:07:50;;;;;;;29.40;10.17;;;;;;;;;;6206519;23;20182;-89
2023/01/25 07:14:46;;;;;;;22.57;9.03;;;;;;;;;;6203235;23;20189;-91
2023/01/25 07:17:51;;;;;;;55.00;21.60;;;;;;;;;;6204237;23;20176;-90
2023/01/25 07:21:03;;;;;;;24.07;10.63;;;;;;;;;;6206436;23;20163;-91
2023/01/25 07:24:13;;;;;;;23.07;9.93;;;;;;;;;;6205038;23;20171;-91
2023/01/25 07:27:23;;;;;;;27.13;10.30;;;;;;;;;;6202757;23;20224;-91
2023/01/25 07:30:28;;;;;;;29.40;11.97;;;;;;;;;;6202731;23;20176;-90
2023/01/25 07:33:34;;;;;;;26.13;10.33;;;;;;;;;;6204149;23;20172;-93
2023/01/25 07:36:42;;;;;;;24.37;9.33;;;;;;;;;;6204165;23;20155;-91
2023/01/25 07:39:57;;;;;;;28.93;10.67;;;;;;;;;;6206934;23;20171;-90
2023/01/25 07:43:04;;;;;;;25.83;9.23;;;;;;;;;;6206309;23;20221;-89
2023/01/25 07:46:12;;;;;;;27.83;9.27;;;;;;;;;;6206165;23;20248;-90
2023/01/25 07:49:18;;;;;;;26.53;9.63;;;;;;;;;;6204511;23;20168;-91
2023/01/25 07:52:35;;;;;;;27.63;9.80;;;;;;;;;;6205186;23;20171;-90
2023/01/25 07:55:42;;;;;;;27.60;10.07;;;;;;;;;;6185375;23;20168;-93
2023/01/25 07:58:48;;;;;;;23.80;9.10;;;;;;;;;;6187191;23;20241;-92
2023/01/25 08:01:56;;;;;;;27.07;10.37;;;;;;;;;;6185298;23;20169;-90
2023/01/25 08:05:02;;;;;;;27.33;10.23;;;;;;;;;;6187527;23;20330;-92
2023/01/25 08:08:10;;;;;;;27.03;10.17;;;;;;;;;;6186298;23;20192;-93
2023/01/25 08:11:22;;;;;;;31.93;12.40;;;;;;;;;;6184600;23;20208;-91
2023/01/25 08:14:27;;;;;;;28.17;11.43;;;;;;;;;;6186190;23;20188;-92
2023/01/25 08:17:35;;;;;;;26.57;9.97;;;;;;;;;;6186682;23;20211;-91
2023/01/25 08:20:40;;;;;;;31.73;11.50;;;;;;;;;;6187128;23;20176;-90
2023/01/25 08:23:46;;;;;;;22.53;9.50;;;;;;;;;;6187141;23;20163;-90
2023/01/25 08:26:55;;;;;;;27.30;10.20;;;;;;;;;;6185578;23;20204;-90
2023/01/25 08:30:01;;;;;;;28.13;10.93;;;;;;;;;;6187318;23;20291;-91
2023/01/25 08:33:08;;;;;;;25.73;9.67;;;;;;;;;;6187583;23;20279;-90
2023/01/25 08:36:17;;;;;;;25.20;9.83;;;;;;;;;;6187003;23;20616;-89
2023/01/25 08:39:22;;;;;;;28.73;10.40;;;;;;;;;;6187018;23;20175;-91
2023/01/25 08:42:30;;;;;;;27.60;10.33;;;;;;;;;;6183574;23;20167;-90
2023/01/25 08:45:36;;;;;;;23.73;9.73;;;;;;;;;;6184668;23;20176;-89
2023/01/25 08:48:41;;;;;;;28.00;9.30;;;;;;;;;;6186279;23;20175;-91
2023/01/25 08:51:47;;;;;;;27.20;10.50;;;;;;;;;;6187522;23;20168;-91
2023/01/25 08:54:52;;;;;;;25.63;10.10;;;;;;;;;;6185372;23;20246;-90
2023/01/25 08:57:59;;;;;;;25.63;8.63;;;;;;;;;;6186392;23;20148;-93
2023/01/25 09:01:05;;;;;;;30.13;10.67;;;;;;;;;;6186079;23;20224;-90
2023/01/25 09:04:11;;;;;;;25.00;8.73;;;;;;;;;;6186277;23;20176;-90
2023/01/25 09:07:18;;;;;;;24.77;9.57;;;;;;;;;;6187605;23;20203;-91
2023/01/25 09:10:23;;;;;;;28.53;10.27;;;;;;;;;;6184806;23;20184;-91
2023/01/25 09:13:36;;;;;;;26.57;10.37;;;;;;;;;;6183944;23;20188;-90
2023/01/25 09:16:42;;;;;;;24.27;9.67;;;;;;;;;;6186529;23;20167;-91
2023/01/25 09:19:48;;;;;;;26.43;10.23;;;;;;;;;;6185379;23;20599;-91
2023/01/25 09:22:57;;;;;;;27.63;10.13;;;;;;;;;;6185135;23;20192;-92
2023/01/25 09:26:03;;;;;;;23.47;9.53;;;;;;;;;;6186271;23;20192;-92
2023/01/25 09:29:10;;;;;;;34.93;10.53;;;;;;;;;;6184803;23;20171;-92
2023/01/25 09:32:15;;;;;;;25.87;10.00;;;;;;;;;;6185984;23;20156;-92
2023/01/25 09:35:34;;;;;;;28.43;9.20;;;;;;;;;;6188213;23;20164;-91
2023/01/25 09:38:41;;;;;;;25.93;10.27;;;;;;;;;;6187116;23;20220;-91
2023/01/25 09:42:03;;;;;;;25.33;8.97;;;;;;;;;;6184715;23;20173;-91
2023/01/25 09:45:26;;;;;;;24.47;9.23;;;;;;;;;;6188868;23;20200;-90
2023/01/25 09:48:37;;;;;;;32.83;10.03;;;;;;;;;;6189097;23;20251;-89
2023/01/25 09:51:53;;;;;;;36.83;12.53;;;;;;;;;;6185575;23;20179;-90
2023/01/25 09:54:59;;;;;;;36.50;12.60;;;;;;;;;;6186728;23;20176;-90
2023/01/25 09:58:05;;;;;;;25.07;8.80;;;;;;;;;;6185649;23;20235;-90
2023/01/25 10:01:16;;;;;;;26.87;9.63;;;;;;;;;;6187632;23;20191;-94
2023/01/25 10:04:27;;;;;;;36.37;12.90;;;;;;;;;;6186635;23;20172;-91
2023/01/25 10:07:41;;;;;;;29.87;10.83;;;;;;;;;;6185358;23;20312;-93
2023/01/25 10:10:49;;;;;;;26.20;10.10;;;;;;;;;;6185123;23;20165;-90
2023/01/25 10:13:56;;;;;;;27.43;10.20;;;;;;;;;;6187981;23;20180;-93
2023/01/25 10:17:04;;;;;;;33.17;10.03;;;;;;;;;;6185368;23;20175;-92
2023/01/25 10:20:16;;;;;;;28.37;9.57;;;;;;;;;;6185930;23;20212;-92
2023/01/25 10:23:38;;;;;;;29.80;10.10;;;;;;;;;;6186308;23;20180;-88
2023/01/25 10:26:49;;;;;;;25.07;9.57;;;;;;;;;;6185297;23;20196;-89
2023/01/25 10:29:58;;;;;;;23.80;9.43;;;;;;;;;;6185874;23;20192;-89
2023/01/25 10:33:12;;;;;;;23.70;9.63;;;;;;;;;;6185166;23;20304;-90
2023/01/25 10:36:20;;;;;;;28.60;9.97;;;;;;;;;;6185944;23;20160;-92
2023/01/25 10:39:26;;;;;;;28.23;10.10;;;;;;;;;;6183768;23;20237;-92
2023/01/25 10:42:37;;;;;;;27.17;10.23;;;;;;;;;;6185324;23;20184;-93
2023/01/25 10:45:43;;;;;;;32.83;10.67;;;;;;;;;;6184949;23;20212;-92
2023/01/25 10:48:49;;;;;;;29.87;9.47;;;;;;;;;;6183370;23;20167;-91
2023/01/25 10:51:55;;;;;;;29.00;10.17;;;;;;;;;;6183510;23;20231;-93
2023/01/25 10:55:08;;;;;;;23.63;9.17;;;;;;;;;;6186015;23;20155;-92
2023/01/25 10:58:30;;;;;;;25.30;8.97;;;;;;;;;;6184764;23;20171;-91
2023/01/25 11:01:37;;;;;;;25.97;9.60;;;;;;;;;;6187811;23;20216;-91
2023/01/25 11:04:46;;;;;;;31.20;10.47;;;;;;;;;;6186661;23;20168;-90
2023/01/25 11:07:53;;;;;;;24.57;9.60;;;;;;;;;;6185277;23;20222;-91
2023/01/25 11:11:24;;;;;;;26.17;10.53;;;;;;;;;;6187312;23;20167;-90
2023/01/25 11:14:31;;;;;;;29.63;10.37;;;;;;;;;;6184908;23;20172;-91
2023/01/25 11:17:36;;;;;;;26.17;10.00;;;;;;;;;;6186598;23;20176;-91
2023/01/25 11:20:42;;;;;;;27.70;11.07;;;;;;;;;;6187103;23;20179;-91
2023/01/25 11:23:58;;;;;;;32.97;11.47;;;;;;;;;;6183056;23;20200;-92
2023/01/25 11:27:13;;;;;;;26.47;10.27;;;;;;;;;;6185415;23;20196;-92
2023/01/25 11:30:21;;;;;;;30.13;10.80;;;;;;;;;;6187194;23;20187;-89
2023/01/25 11:33:29;;;;;;;28.03;10.93;;;;;;;;;;6185934;23;20587;-91
2023/01/25 11:40:07;;;;;;;28.93;10.60;;;;;;;;;;6186613;23;20207;-92
2023/01/25 11:43:21;;;;;;;31.17;10.63;;;;;;;;;;6184095;23;20171;-90
2023/01/25 11:46:31;;;;;;;25.83;10.00;;;;;;;;;;6185806;23;20179;-89
2023/01/25 11:49:51;;;;;;;25.73;9.70;;;;;;;;;;6183408;23;20171;-91
2023/01/25 11:53:04;;;;;;;47.50;13.27;;;;;;;;;;6184879;23;20212;-91
2023/01/25 11:56:18;;;;;;;34.80;10.97;;;;;;;;;;6187969;23;20232;-92
2023/01/25 11:59:38;;;;;;;33.63;11.03;;;;;;;;;;6191538;23;20175;-89
2023/01/25 12:03:02;;;;;;;36.73;10.83;;;;;;;;;;6187400;23;20171;-90
2023/01/25 12:06:12;;;;;;;25.37;10.03;;;;;;;;;;6185384;23;20167;-90
2023/01/25 12:09:23;;;;;;;28.43;9.93;;;;;;;;;;6184753;23;20172;-89
2023/01/25 12:13:02;;;;;;;26.60;9.53;;;;;;;;;;6185967;23;20172;-90
2023/01/25 12:16:16;;;;;;;39.40;15.70;;;;;;;;;;6186004;23;20148;-90
2023/01/25 12:19:37;;;;;;;39.20;14.00;;;;;;;;;;6186532;23;20506;-92
2023/01/25 12:22:58;;;;;;;34.27;11.73;;;;;;;;;;6185048;23;20168;-92
2023/01/25 12:26:08;;;;;;;33.90;10.77;;;;;;;;;;6186065;23;20168;-93
2023/01/25 12:29:20;;;;;;;30.07;10.67;;;;;;;;;;6185550;23;20274;-91
2023/01/25 12:32:29;;;;;;;27.10;10.77;;;;;;;;;;6186427;23;20547;-90
2023/01/25 12:35:36;;;;;;;25.47;10.27;;;;;;;;;;6186153;23;20175;-90
2023/01/25 12:38:43;;;;;;;31.73;11.03;;;;;;;;;;6184808;23;20175;-90
2023/01/25 12:41:51;;;;;;;28.60;9.80;;;;;;;;;;6184447;23;20163;-91
2023/01/25 12:45:00;;;;;;;26.30;10.40;;;;;;;;;;6187005;23;20164;-90
2023/01/25 12:48:14;;;;;;;29.03;10.10;;;;;;;;;;6186155;23;20192;-91
2023/01/25 12:51:21;;;;;;;21.27;9.43;;;;;;;;;;6187788;23;20247;-94
2023/01/25 12:54:30;;;;;;;23.43;9.37;;;;;;;;;;6201506;23;20190;-92
2023/01/25 12:57:39;;;;;;;26.00;10.67;;;;;;;;;;6203962;23;20159;-93
2023/01/25 13:00:52;;;;;;;25.90;10.03;;;;;;;;;;6204649;23;20209;-89
2023/01/25 13:04:05;;;;;;;22.80;9.40;;;;;;;;;;6206517;23;20216;-88
2023/01/25 13:07:16;;;;;;;25.63;9.30;;;;;;;;;;6204854;23;20181;-89
2023/01/25 13:10:27;;;;;;;28.27;10.30;;;;;;;;;;6186021;23;20175;-91
2023/01/25 13:13:33;;;;;;;27.80;10.57;;;;;;;;;;6204162;23;20172;-90
2023/01/25 13:16:42;;;;;;;32.70;11.57;;;;;;;;;;6206706;23;20228;-90
2023/01/25 13:24:15;;;;;;;28.47;11.40;;;;;;;;;;6206426;23;20144;-92
2023/01/25 13:27:26;;;;;;;29.40;11.17;;;;;;;;;;6207726;23;20171;-92
2023/01/25 13:30:33;;;;;;;25.73;10.83;;;;;;;;;;6210029;23;20152;-90
2023/01/25 13:33:38;;;;;;;24.10;9.73;;;;;;;;;;6210231;23;20167;-92
2023/01/25 13:40:29;;;;;;;27.93;9.47;;;;;;;;;;6209359;23;20515;-91
2023/01/25 13:43:35;;;;;;;27.30;10.83;;;;;;;;;;6206915;23;20171;-93
2023/01/25 13:46:41;;;;;;;26.77;10.17;;;;;;;;;;6208439;23;20214;-90
2023/01/25 13:49:50;;;;;;;25.63;9.77;;;;;;;;;;6211386;23;20164;-89
2023/01/25 15:14:18;;;;;;;30.07;11.70;;;;;;;;;;6233967;23;20187;-90
2023/01/25 15:17:36;;;;;;;26.37;11.17;;;;;;;;;;6235201;23;20623;-94
2023/01/25 15:20:42;;;;;;;27.87;10.77;;;;;;;;;;6233456;23;20163;-91
2023/01/25 15:23:51;;;;;;;31.97;12.37;;;;;;;;;;6233679;23;20187;-92
2023/01/25 15:26:57;;;;;;;29.63;10.87;;;;;;;;;;6232609;23;20210;-92
2023/01/25 15:30:03;;;;;;;29.40;11.87;;;;;;;;;;6237209;23;20171;-89
2023/01/25 15:33:11;;;;;;;29.43;10.80;;;;;;;;;;6236896;23;20206;-91
2023/01/25 23:01:32;;;;;;;24.23;10.47;;;;;;;;;;6178160;23;20191;-90
2023/01/25 23:04:37;;;;;;;26.07;9.90;;;;;;;;;;6220145;23;20316;-91
2023/01/25 23:16:35;;;;;;;24.40;9.17;;;;;;;;;;6197528;22;20215;-91
2023/01/25 23:19:42;;;;;;;24.30;9.67;;;;;;;;;;6269455;22;20175;-90
2023/01/25 23:22:48;;;;;;;23.20;9.57;;;;;;;;;;6250121;22;20190;-91
2023/01/25 23:25:56;;;;;;;27.87;9.50;;;;;;;;;;6251413;22;20166;-90
2023/01/25 23:29:03;;;;;;;28.10;9.60;;;;;;;;;;6251419;23;20245;-91
2023/01/25 23:32:14;;;;;;;28.23;10.43;;;;;;;;;;6250086;22;20162;-90
2023/01/25 23:35:21;;;;;;;22.37;9.03;;;;;;;;;;6248437;22;20171;-91
2023/01/25 23:38:29;;;;;;;25.60;9.90;;;;;;;;;;6248647;23;20154;-91
2023/01/25 23:41:35;;;;;;;26.20;10.23;;;;;;;;;;6247721;23;20162;-94
2023/01/25 23:44:40;;;;;;;26.67;10.20;;;;;;;;;;6266335;22;20614;-93
2023/01/25 23:47:47;;;;;;;31.43;10.90;;;;;;;;;;6244208;23;20167;-91
2023/01/25 23:50:53;;;;;;;25.33;9.70;;;;;;;;;;6251830;22;20154;-91
2023/01/25 23:53:59;;;;;;;23.47;10.10;;;;;;;;;;6249107;23;20150;-92
2023/01/25 23:57:04;;;;;;;24.23;9.73;;;;;;;;;;6247271;23;20242;-91
